createdAt,value
2022-11-18T00:00:51.343Z,14.28
2022-11-18T00:03:17.969Z,14.25
2022-11-18T00:05:55.779Z,14.09
2022-11-18T00:08:23.421Z,13.86
2022-11-18T00:10:50.277Z,13.98
2022-11-18T00:13:36.516Z,14.09
2022-11-18T00:16:09.175Z,14.29
2022-11-18T00:18:36.106Z,14.23
2022-11-18T00:21:04.405Z,14.26
2022-11-18T00:23:30.998Z,14.07
2022-11-18T00:26:06.202Z,14.04
2022-11-18T00:28:33.238Z,14.14
2022-11-18T00:31:08.760Z,14.14
2022-11-18T00:33:36.920Z,14.20
2022-11-18T00:36:09.523Z,14.23
2022-11-18T00:38:36.309Z,14.20
2022-11-18T00:41:15.156Z,14.11
2022-11-18T00:43:42.315Z,14.15
2022-11-18T00:46:11.991Z,14.13
2022-11-18T00:48:39.573Z,14.03
2022-11-18T00:51:08.417Z,13.88
2022-11-18T00:53:35.049Z,14.04
2022-11-18T00:56:01.662Z,14.08
2022-11-18T00:58:28.214Z,14.12
2022-11-18T01:00:54.963Z,14.05
2022-11-18T01:03:21.691Z,14.08
2022-11-18T01:05:48.850Z,14.15
2022-11-18T01:08:15.427Z,14.28
2022-11-18T01:10:42.006Z,14.31
2022-11-18T01:13:19.296Z,14.21
2022-11-18T01:15:48.767Z,14.34
2022-11-18T01:18:16.442Z,14.33
2022-11-18T01:20:43.794Z,14.31
2022-11-18T01:23:10.359Z,14.33
2022-11-18T01:25:38.264Z,14.39
2022-11-18T01:28:05.438Z,14.36
2022-11-18T01:30:36.531Z,14.31
2022-11-18T01:33:04.278Z,14.30
2022-11-18T01:35:38.411Z,14.38
2022-11-18T01:38:05.986Z,14.34
2022-11-18T01:40:33.385Z,14.39
2022-11-18T01:43:00.049Z,14.42
2022-11-18T01:45:35.698Z,14.30
2022-11-18T01:48:05.520Z,14.39
2022-11-18T01:50:34.655Z,14.10
2022-11-18T01:53:08.524Z,14.06
2022-11-18T01:55:37.989Z,14.26
2022-11-18T01:58:12.335Z,14.35
2022-11-18T02:00:39.903Z,14.35
2022-11-18T02:03:07.222Z,14.38
2022-11-18T02:05:35.587Z,14.37
2022-11-18T02:08:03.435Z,14.43
2022-11-18T02:10:30.035Z,14.42
2022-11-18T02:12:58.848Z,14.41
2022-11-18T02:15:51.540Z,14.49
2022-11-18T02:18:41.787Z,14.44
2022-11-18T02:21:17.411Z,14.38
2022-11-18T02:24:20.922Z,14.40
2022-11-18T02:27:19.462Z,14.43
2022-11-18T02:30:01.647Z,14.38
2022-11-18T02:33:14.390Z,14.26
2022-11-18T02:35:54.116Z,14.39
2022-11-18T02:38:34.472Z,14.42
2022-11-18T02:41:12.405Z,14.39
2022-11-18T02:43:45.980Z,14.41
2022-11-18T02:46:17.420Z,14.42
2022-11-18T02:48:48.534Z,14.38
2022-11-18T02:51:19.866Z,14.45
2022-11-18T02:53:48.646Z,14.37
2022-11-18T02:56:17.120Z,14.18
2022-11-18T02:58:44.254Z,14.20
2022-11-18T03:01:24.760Z,14.19
2022-11-18T03:03:51.354Z,14.24
2022-11-18T03:06:40.382Z,13.52
2022-11-18T03:09:17.649Z,13.35
2022-11-18T03:12:15.704Z,13.34
2022-11-18T03:14:56.170Z,13.54
2022-11-18T03:17:30.986Z,13.63
2022-11-18T03:20:09.644Z,13.63
2022-11-18T03:22:36.165Z,13.57
2022-11-18T03:25:07.556Z,13.55
2022-11-18T03:27:55.743Z,13.40
2022-11-18T03:30:24.556Z,13.41
2022-11-18T03:32:57.840Z,13.20
2022-11-18T03:35:28.802Z,13.31
2022-11-18T03:38:01.574Z,13.26
2022-11-18T03:40:32.387Z,13.05
2022-11-18T03:43:21.368Z,13.21
2022-11-18T03:45:52.545Z,12.98
2022-11-18T03:48:43.459Z,12.97
2022-11-18T03:51:15.445Z,12.84
2022-11-18T03:53:47.194Z,13.03
2022-11-18T03:56:20.190Z,13.31
2022-11-18T03:59:12.888Z,13.00
2022-11-18T04:02:03.990Z,13.21
2022-11-18T04:04:30.753Z,13.08
2022-11-18T04:07:16.761Z,13.50
2022-11-18T04:09:54.501Z,13.34
2022-11-18T04:12:21.477Z,13.37
2022-11-18T04:14:52.214Z,13.17
2022-11-18T04:17:26.415Z,13.27
2022-11-18T04:19:52.997Z,13.06
2022-11-18T04:22:20.168Z,13.14
2022-11-18T04:24:46.768Z,13.34
2022-11-18T04:27:13.462Z,13.39
2022-11-18T04:29:40.014Z,13.41
2022-11-18T04:32:06.956Z,13.46
2022-11-18T04:34:33.599Z,13.44
2022-11-18T04:37:00.252Z,13.41
2022-11-18T04:39:26.793Z,14.02
2022-11-18T04:41:56.164Z,14.16
2022-11-18T04:44:30.895Z,14.04
2022-11-18T04:46:59.557Z,14.18
2022-11-18T04:49:27.628Z,14.15
2022-11-18T04:51:54.786Z,14.07
2022-11-18T04:54:21.867Z,14.09
2022-11-18T04:56:49.854Z,13.64
2022-11-18T04:59:20.451Z,13.86
2022-11-18T05:01:48.190Z,13.76
2022-11-18T05:04:16.812Z,13.79
2022-11-18T05:06:43.436Z,13.89
2022-11-18T05:09:10.844Z,13.98
2022-11-18T05:11:56.480Z,13.96
2022-11-18T05:14:25.905Z,13.86
2022-11-18T05:16:52.547Z,13.48
2022-11-18T05:19:19.427Z,13.16
2022-11-18T05:21:46.193Z,13.71
2022-11-18T05:24:12.710Z,13.66
2022-11-18T05:26:39.234Z,13.62
2022-11-18T05:29:05.815Z,13.61
2022-11-18T05:31:32.562Z,13.21
2022-11-18T05:33:59.558Z,13.39
2022-11-18T05:36:26.401Z,13.51
2022-11-18T05:38:53.014Z,13.40
2022-11-18T05:41:42.773Z,13.42
2022-11-18T05:44:09.353Z,13.47
2022-11-18T05:46:35.929Z,13.65
2022-11-18T05:49:02.526Z,13.06
2022-11-18T05:51:29.082Z,13.52
2022-11-18T05:53:56.160Z,13.41
2022-11-18T05:56:40.116Z,13.48
2022-11-18T05:59:07.166Z,13.57
2022-11-18T06:01:40.802Z,12.77
2022-11-18T06:04:33.741Z,13.13
2022-11-18T06:07:25.754Z,13.21
2022-11-18T06:09:57.928Z,13.04
2022-11-18T06:12:32.020Z,12.41
2022-11-18T06:15:05.494Z,13.10
2022-11-18T06:17:42.498Z,13.22
2022-11-18T06:20:10.319Z,13.09
2022-11-18T06:22:38.995Z,13.43
2022-11-18T06:25:08.918Z,13.54
2022-11-18T06:27:35.665Z,13.04
2022-11-18T06:30:02.395Z,13.01
2022-11-18T06:32:29.006Z,13.55
2022-11-18T06:34:55.610Z,13.74
2022-11-18T06:37:22.156Z,13.35
2022-11-18T06:39:48.796Z,13.79
2022-11-18T06:42:35.582Z,13.16
2022-11-18T06:45:03.530Z,13.83
2022-11-18T06:47:30.186Z,14.17
2022-11-18T06:49:56.783Z,13.96
2022-11-18T06:52:23.911Z,14.29
2022-11-18T06:54:50.424Z,14.01
2022-11-18T06:57:17.037Z,13.97
2022-11-18T06:59:43.622Z,14.33
2022-11-18T07:02:10.232Z,14.38
2022-11-18T07:04:39.584Z,14.35
2022-11-18T07:07:07.171Z,14.31
2022-11-18T07:09:34.998Z,14.22
2022-11-18T07:12:02.184Z,14.39
2022-11-18T07:14:28.902Z,14.10
2022-11-18T07:16:55.491Z,14.02
2022-11-18T07:19:22.143Z,14.45
2022-11-18T07:21:48.912Z,14.35
2022-11-18T07:24:16.230Z,14.28
2022-11-18T07:26:43.331Z,14.28
2022-11-18T07:29:10.763Z,14.67
2022-11-18T07:31:39.007Z,14.85
2022-11-18T07:34:06.704Z,14.91
2022-11-18T07:36:35.902Z,14.59
2022-11-18T07:39:05.344Z,14.23
2022-11-18T07:41:32.662Z,14.54
2022-11-18T07:44:01.507Z,14.56
2022-11-18T07:46:28.390Z,14.17
2022-11-18T07:48:57.279Z,14.27
2022-11-18T07:51:26.563Z,13.92
2022-11-18T07:53:53.263Z,14.45
2022-11-18T07:56:20.752Z,14.82
2022-11-18T07:58:48.201Z,14.96
2022-11-18T08:01:17.632Z,14.66
2022-11-18T08:03:44.945Z,14.40
2022-11-18T08:06:13.437Z,14.02
2022-11-18T08:08:40.358Z,14.05
2022-11-18T08:11:10.035Z,14.55
2022-11-18T08:13:36.983Z,14.62
2022-11-18T08:16:04.870Z,14.65
2022-11-18T08:18:32.786Z,14.34
2022-11-18T08:21:03.898Z,14.71
2022-11-18T08:23:33.965Z,14.22
2022-11-18T08:26:11.729Z,14.16
2022-11-18T08:28:38.603Z,14.55
2022-11-18T08:31:19.503Z,14.19
2022-11-18T08:33:46.529Z,14.49
2022-11-18T08:36:16.793Z,13.87
2022-11-18T08:38:44.185Z,13.76
2022-11-18T08:41:15.630Z,14.03
2022-11-18T08:43:42.686Z,14.14
2022-11-18T08:46:09.292Z,14.09
2022-11-18T08:48:36.361Z,13.80
2022-11-18T08:51:03.640Z,14.16
2022-11-18T08:53:30.614Z,14.15
2022-11-18T08:55:58.322Z,14.03
2022-11-18T08:58:25.743Z,14.04
2022-11-18T09:00:52.649Z,13.62
2022-11-18T09:03:19.952Z,13.88
2022-11-18T09:05:46.605Z,14.02
2022-11-18T09:08:13.371Z,13.87
2022-11-18T09:10:39.917Z,13.96
2022-11-18T09:13:33.789Z,13.86
2022-11-18T09:15:53.101Z,13.79
2022-11-18T09:18:19.667Z,13.86
2022-11-18T09:20:55.551Z,13.86
2022-11-18T09:23:22.515Z,14.00
2022-11-18T09:25:49.229Z,14.02
2022-11-18T09:28:15.910Z,13.98
2022-11-18T09:30:42.686Z,13.99
2022-11-18T09:33:09.229Z,14.12
2022-11-18T09:35:35.784Z,14.21
2022-11-18T09:38:02.293Z,14.33
2022-11-18T09:40:28.995Z,14.25
2022-11-18T09:43:19.525Z,14.33
2022-11-18T09:45:51.700Z,14.39
2022-11-18T09:48:41.912Z,14.46
2022-11-18T09:51:11.416Z,14.46
2022-11-18T09:53:41.327Z,14.01
2022-11-18T09:56:14.918Z,13.77
2022-11-18T09:58:42.881Z,14.04
2022-11-18T10:01:17.794Z,14.20
2022-11-18T10:03:44.401Z,14.04
2022-11-18T10:06:27.656Z,13.93
2022-11-18T10:09:33.280Z,13.98
2022-11-18T10:12:29.241Z,14.11
2022-11-18T10:15:20.440Z,13.79
2022-11-18T10:17:50.566Z,13.74
2022-11-18T10:20:36.742Z,13.92
2022-11-18T10:23:09.369Z,13.92
2022-11-18T10:25:35.908Z,13.90
2022-11-18T10:28:29.296Z,13.99
2022-11-18T10:31:11.038Z,14.05
2022-11-18T10:33:38.625Z,14.09
2022-11-18T10:36:17.005Z,13.91
2022-11-18T10:38:49.535Z,13.63
2022-11-18T10:41:20.460Z,13.57
2022-11-18T10:43:57.396Z,13.56
2022-11-18T10:46:28.350Z,13.87
2022-11-18T10:49:10.315Z,14.02
2022-11-18T10:51:45.343Z,14.04
2022-11-18T10:54:16.840Z,13.94
2022-11-18T10:56:49.499Z,14.05
2022-11-18T10:59:26.978Z,14.11
2022-11-18T11:02:15.337Z,14.03
2022-11-18T11:04:43.123Z,13.72
2022-11-18T11:07:26.876Z,13.22
2022-11-18T11:10:13.713Z,13.39
2022-11-18T11:12:48.067Z,13.69
2022-11-18T11:15:18.279Z,13.61
2022-11-18T11:18:24.872Z,13.90
2022-11-18T11:20:52.602Z,13.99
2022-11-18T11:23:23.734Z,13.97
2022-11-18T11:29:08.907Z,14.10
2022-11-18T11:31:55.349Z,13.98
2022-11-18T11:34:40.862Z,13.49
2022-11-18T11:37:31.666Z,13.51
2022-11-18T11:40:08.797Z,13.53
2022-11-18T11:42:50.586Z,13.57
2022-11-18T11:45:20.084Z,13.64
2022-11-18T11:48:14.191Z,13.85
2022-11-18T11:51:03.027Z,13.45
2022-11-18T11:54:02.848Z,13.80
2022-11-18T11:56:42.304Z,13.73
2022-11-18T11:59:16.636Z,13.78
2022-11-18T12:02:01.960Z,14.00
2022-11-18T12:04:41.202Z,13.74
2022-11-18T12:07:16.980Z,13.97
2022-11-18T12:10:05.938Z,13.99
2022-11-18T12:12:47.970Z,13.92
2022-11-18T12:15:44.748Z,13.73
2022-11-18T12:18:32.956Z,13.79
2022-11-18T12:20:59.495Z,13.98
2022-11-18T12:23:30.902Z,13.99
2022-11-18T12:25:58.905Z,14.05
2022-11-18T12:28:31.450Z,13.96
2022-11-18T12:31:16.208Z,13.96
2022-11-18T12:33:54.467Z,13.64
2022-11-18T12:36:39.364Z,13.78
2022-11-18T12:39:33.165Z,13.90
2022-11-18T12:42:20.323Z,13.71
2022-11-18T12:44:52.232Z,13.52
2022-11-18T12:47:41.719Z,13.02
2022-11-18T12:50:14.640Z,13.34
2022-11-18T12:52:41.084Z,13.35
2022-11-18T12:55:21.883Z,13.23
2022-11-18T12:57:48.406Z,13.16
2022-11-18T13:00:23.815Z,13.23
2022-11-18T13:02:56.328Z,13.16
2022-11-18T13:05:28.870Z,13.26
2022-11-18T13:08:15.683Z,13.34
2022-11-18T13:10:55.849Z,13.49
2022-11-18T13:13:32.725Z,13.47
2022-11-18T13:16:37.835Z,13.42
2022-11-18T13:19:05.012Z,13.48
2022-11-18T13:21:50.185Z,13.57
2022-11-18T13:24:19.577Z,13.72
2022-11-18T13:26:47.600Z,13.37
2022-11-18T13:29:15.184Z,13.53
2022-11-18T13:32:18.521Z,13.52
2022-11-18T13:34:52.381Z,13.68
2022-11-18T13:37:21.496Z,13.55
2022-11-18T13:39:49.242Z,13.67
2022-11-18T13:42:27.703Z,13.76
2022-11-18T13:44:57.260Z,13.72
2022-11-18T13:47:47.793Z,13.89
2022-11-18T13:50:18.352Z,13.64
2022-11-18T13:53:07.881Z,13.61
2022-11-18T13:55:39.935Z,13.49
2022-11-18T13:58:40.221Z,13.69
2022-11-18T14:01:23.368Z,13.85
2022-11-18T14:03:53.938Z,13.68
2022-11-18T14:06:24.544Z,13.76
2022-11-18T14:08:52.852Z,13.81
2022-11-18T14:11:37.794Z,13.73
2022-11-18T14:14:04.976Z,13.75
2022-11-18T14:16:40.360Z,13.97
2022-11-18T14:19:07.687Z,13.97
2022-11-18T14:21:38.201Z,14.07
2022-11-18T14:24:05.711Z,14.01
2022-11-18T14:26:38.090Z,14.06
2022-11-18T14:29:23.203Z,14.03
2022-11-18T14:32:11.745Z,14.02
2022-11-18T14:34:38.288Z,14.11
2022-11-18T14:37:12.332Z,14.04
2022-11-18T14:39:39.731Z,14.04
2022-11-18T14:42:06.721Z,14.15
2022-11-18T14:44:33.214Z,14.25
2022-11-18T14:47:02.517Z,14.21
2022-11-18T14:49:31.554Z,14.17
2022-11-18T14:52:02.511Z,14.12
2022-11-18T14:54:29.672Z,13.67
2022-11-18T14:57:01.376Z,12.80
2022-11-18T14:59:27.931Z,13.20
2022-11-18T15:01:56.268Z,13.16
2022-11-18T15:04:23.118Z,13.04
2022-11-18T15:06:49.617Z,12.74
2022-11-18T15:09:16.538Z,12.67
2022-11-18T15:11:43.134Z,12.58
2022-11-18T15:14:09.674Z,12.64
2022-11-18T15:16:36.432Z,12.84
2022-11-18T15:19:05.153Z,12.59
2022-11-18T15:21:33.164Z,12.67
2022-11-18T15:23:59.836Z,12.67
2022-11-18T15:26:27.565Z,12.77
2022-11-18T15:28:56.651Z,12.81
2022-11-18T15:31:24.439Z,12.90
2022-11-18T15:33:51.510Z,12.87
2022-11-18T15:36:23.520Z,12.99
2022-11-18T15:38:50.930Z,12.92
2022-11-18T15:41:22.905Z,12.97
2022-11-18T15:43:50.052Z,12.97
2022-11-18T15:46:21.475Z,12.97
2022-11-18T15:48:50.971Z,13.09
2022-11-18T15:51:17.728Z,13.05
2022-11-18T15:53:44.327Z,13.13
2022-11-18T15:56:22.981Z,13.14
2022-11-18T15:59:14.964Z,13.23
2022-11-18T16:01:44.082Z,13.16
2022-11-18T16:04:13.104Z,12.97
2022-11-18T16:06:39.842Z,13.24
2022-11-18T16:09:06.915Z,13.22
2022-11-18T16:11:52.331Z,13.26
2022-11-18T16:14:20.976Z,13.41
2022-11-18T16:16:49.682Z,13.46
2022-11-18T16:19:22.180Z,13.54
2022-11-18T16:21:51.265Z,13.55
2022-11-18T16:24:23.415Z,13.53
2022-11-18T16:26:50.176Z,13.02
2022-11-18T16:29:18.403Z,13.36
2022-11-18T16:31:54.041Z,13.40
2022-11-18T16:34:29.742Z,13.42
2022-11-18T16:37:00.651Z,13.54
2022-11-18T16:39:28.457Z,13.56
2022-11-18T16:42:06.848Z,13.57
2022-11-18T16:44:34.825Z,13.54
2022-11-18T16:47:01.457Z,13.34
2022-11-18T16:49:28.070Z,13.56
2022-11-18T16:51:56.105Z,13.22
2022-11-18T16:54:27.777Z,13.10
2022-11-18T16:56:56.396Z,13.30
2022-11-18T16:59:29.164Z,13.26
2022-11-18T17:01:57.439Z,13.13
2022-11-18T17:04:25.796Z,13.29
2022-11-18T17:06:52.742Z,13.26
2022-11-18T17:09:22.453Z,13.13
2022-11-18T17:11:50.459Z,13.33
2022-11-18T17:14:17.282Z,13.31
2022-11-18T17:16:43.875Z,13.49
2022-11-18T17:19:15.468Z,13.51
2022-11-18T17:21:42.811Z,13.42
2022-11-18T17:24:10.564Z,13.59
2022-11-18T17:26:37.113Z,13.38
2022-11-18T17:29:03.683Z,13.51
2022-11-18T17:31:30.223Z,13.59
2022-11-18T17:33:56.855Z,13.37
2022-11-18T17:36:25.653Z,13.43
2022-11-18T17:38:55.444Z,13.66
2022-11-18T17:41:43.248Z,13.69
2022-11-18T17:44:12.514Z,13.64
2022-11-18T17:46:39.683Z,13.68
2022-11-18T17:49:23.481Z,13.74
2022-11-18T17:51:53.396Z,13.54
2022-11-18T17:54:21.126Z,13.43
2022-11-18T17:56:48.317Z,13.51
2022-11-18T17:59:17.056Z,13.32
2022-11-18T18:01:44.740Z,13.19
2022-11-18T18:04:12.000Z,13.39
2022-11-18T18:06:38.570Z,13.39
2022-11-18T18:09:05.240Z,13.39
2022-11-18T18:11:31.744Z,12.88
2022-11-18T18:14:13.535Z,13.20
2022-11-18T18:16:45.864Z,13.26
2022-11-18T18:19:17.921Z,13.22
2022-11-18T18:21:45.461Z,13.29
2022-11-18T18:24:14.612Z,12.51
2022-11-18T18:26:41.124Z,13.02
2022-11-18T18:29:07.752Z,12.83
2022-11-18T18:31:36.091Z,13.05
2022-11-18T18:34:03.549Z,13.00
2022-11-18T18:36:30.205Z,13.07
2022-11-18T18:38:58.412Z,13.02
2022-11-18T18:41:24.939Z,12.98
2022-11-18T18:43:51.597Z,12.81
2022-11-18T18:46:31.357Z,12.57
2022-11-18T18:48:59.589Z,12.81
2022-11-18T18:51:27.693Z,12.83
2022-11-18T18:53:58.659Z,12.85
2022-11-18T18:56:25.609Z,12.75
2022-11-18T18:58:52.132Z,12.74
2022-11-18T19:01:19.623Z,12.95
2022-11-18T19:03:46.905Z,12.88
2022-11-18T19:09:08.850Z,12.51
2022-11-18T19:11:55.293Z,12.78
2022-11-18T19:14:23.120Z,12.58
2022-11-18T19:16:50.379Z,12.86
2022-11-18T19:19:39.583Z,12.49
2022-11-18T19:22:06.732Z,12.44
2022-11-18T19:24:48.790Z,12.66
2022-11-18T19:27:17.243Z,12.21
2022-11-18T19:29:44.156Z,12.43
2022-11-18T19:32:10.702Z,12.58
2022-11-18T19:34:37.233Z,12.56
2022-11-18T19:37:03.779Z,12.58
2022-11-18T19:39:30.351Z,12.66
2022-11-18T19:41:56.873Z,12.16
2022-11-18T19:44:23.455Z,12.22
2022-11-18T19:46:50.051Z,12.64
2022-11-18T19:49:17.205Z,12.10
2022-11-18T19:51:43.919Z,12.46
2022-11-18T19:54:10.513Z,12.71
2022-11-18T19:56:37.028Z,12.53
2022-11-18T19:59:03.552Z,12.24
2022-11-18T20:01:31.916Z,12.10
2022-11-18T20:04:02.810Z,11.90
2022-11-18T20:06:29.447Z,11.93
2022-11-18T20:08:56.856Z,12.12
2022-11-18T20:11:23.971Z,11.54
2022-11-18T20:13:50.888Z,11.82
2022-11-18T20:16:20.556Z,11.94
2022-11-18T20:18:48.714Z,11.92
2022-11-18T20:21:20.320Z,11.99
2022-11-18T20:23:48.422Z,11.95
2022-11-18T20:26:17.638Z,12.02
2022-11-18T20:28:46.131Z,12.04
2022-11-18T20:31:15.711Z,11.97
2022-11-18T20:33:48.336Z,12.00
2022-11-18T20:36:21.137Z,11.84
2022-11-18T20:38:53.325Z,11.96
2022-11-18T20:41:21.008Z,12.06
2022-11-18T20:43:48.073Z,11.90
2022-11-18T20:46:21.030Z,11.97
2022-11-18T20:48:49.094Z,11.81
2022-11-18T20:51:18.772Z,11.55
2022-11-18T20:53:45.485Z,11.57
2022-11-18T20:56:14.680Z,11.88
2022-11-18T20:58:41.719Z,11.92
2022-11-18T21:01:10.762Z,11.86
2022-11-18T21:03:38.362Z,11.85
2022-11-18T21:06:13.939Z,11.37
2022-11-18T21:08:41.877Z,11.02
2022-11-18T21:11:10.702Z,11.59
2022-11-18T21:13:56.319Z,11.48
2022-11-18T21:16:23.482Z,11.49
2022-11-18T21:18:50.012Z,11.46
2022-11-18T21:21:35.057Z,11.69
2022-11-18T21:24:02.607Z,11.72
2022-11-18T21:26:31.744Z,11.96
2022-11-18T21:29:00.559Z,12.08
2022-11-18T21:31:27.993Z,12.20
2022-11-18T21:33:55.050Z,12.77
2022-11-18T21:36:22.569Z,12.86
2022-11-18T21:38:49.161Z,12.76
2022-11-18T21:41:15.897Z,12.82
2022-11-18T21:44:04.576Z,12.80
2022-11-18T21:46:30.346Z,12.60
2022-11-18T21:49:00.153Z,12.73
2022-11-18T21:51:27.523Z,12.61
2022-11-18T21:53:54.281Z,12.58
2022-11-18T21:56:23.319Z,12.74
2022-11-18T21:58:50.163Z,12.21
2022-11-18T22:01:25.709Z,12.35
2022-11-18T22:03:55.711Z,12.38
2022-11-18T22:06:24.400Z,12.35
2022-11-18T22:08:52.078Z,12.47
2022-11-18T22:11:20.261Z,12.47
2022-11-18T22:13:46.790Z,12.67
2022-11-18T22:16:15.887Z,12.80
2022-11-18T22:18:53.063Z,12.72
2022-11-18T22:21:23.017Z,12.50
2022-11-18T22:23:49.727Z,12.79
2022-11-18T22:26:18.940Z,12.91
2022-11-18T22:28:46.794Z,12.78
2022-11-18T22:31:20.393Z,12.71
2022-11-18T22:33:47.781Z,12.82
2022-11-18T22:36:16.092Z,12.92
2022-11-18T22:38:43.827Z,12.93
2022-11-18T22:41:31.867Z,12.97
2022-11-18T22:44:01.458Z,12.85
2022-11-18T22:46:32.307Z,12.89
2022-11-18T22:48:59.715Z,12.87
2022-11-18T22:51:26.688Z,12.62
2022-11-18T22:54:09.707Z,12.82
2022-11-18T22:56:39.845Z,12.66
2022-11-18T22:59:06.369Z,12.77
2022-11-18T23:01:32.937Z,12.72
2022-11-18T23:03:59.462Z,12.87
2022-11-18T23:06:25.984Z,12.92
2022-11-18T23:08:52.473Z,12.94
2022-11-18T23:11:38.601Z,12.97
2022-11-18T23:14:07.423Z,13.05
2022-11-18T23:16:37.254Z,13.06
2022-11-18T23:19:08.829Z,13.01
2022-11-18T23:21:35.572Z,12.99
2022-11-18T23:24:02.439Z,13.02
2022-11-18T23:26:29.316Z,13.10
2022-11-18T23:28:56.221Z,13.11
2022-11-18T23:31:24.966Z,13.08
2022-11-18T23:33:52.896Z,12.95
2022-11-18T23:36:20.005Z,12.98
2022-11-18T23:38:47.640Z,13.07
2022-11-18T23:41:16.080Z,12.96
2022-11-18T23:43:43.059Z,13.05
2022-11-18T23:46:10.020Z,13.21
2022-11-18T23:48:38.923Z,13.07
2022-11-18T23:51:07.800Z,13.00
2022-11-18T23:53:35.394Z,12.94
2022-11-18T23:56:13.375Z,12.82
2022-11-18T23:58:41.440Z,12.81
